sensor_id;sensor_type;location;lat;lon;timestamp;pressure;altitude;pressure_sealevel;temperature;humidity
75045;BME280;63614;56.026;35.960;2022-10-16T00:01:22;100333.03;;;3.61;73.75
75045;BME280;63614;56.026;35.960;2022-10-16T00:03:48;100334.56;;;3.53;73.91
75045;BME280;63614;56.026;35.960;2022-10-16T00:06:16;100340.16;;;3.58;73.97
75045;BME280;63614;56.026;35.960;2022-10-16T00:08:42;100339.34;;;3.57;73.67
75045;BME280;63614;56.026;35.960;2022-10-16T00:13:50;100348.38;;;3.40;74.34
75045;BME280;63614;56.026;35.960;2022-10-16T00:16:17;100344.50;;;3.46;74.07
75045;BME280;63614;56.026;35.960;2022-10-16T00:18:44;100342.88;;;3.45;74.24
75045;BME280;63614;56.026;35.960;2022-10-16T00:21:15;100348.47;;;3.39;74.46
75045;BME280;63614;56.026;35.960;2022-10-16T00:24:06;100341.69;;;3.38;74.17
75045;BME280;63614;56.026;35.960;2022-10-16T00:26:35;100340.88;;;3.37;74.22
75045;BME280;63614;56.026;35.960;2022-10-16T00:29:02;100341.13;;;3.34;74.52
75045;BME280;63614;56.026;35.960;2022-10-16T00:31:28;100345.44;;;3.34;74.56
75045;BME280;63614;56.026;35.960;2022-10-16T00:33:55;100346.84;;;3.26;74.58
75045;BME280;63614;56.026;35.960;2022-10-16T00:36:23;100346.84;;;3.26;74.72
75045;BME280;63614;56.026;35.960;2022-10-16T00:38:54;100344.38;;;3.25;74.81
75045;BME280;63614;56.026;35.960;2022-10-16T00:41:22;100343.81;;;3.21;74.75
75045;BME280;63614;56.026;35.960;2022-10-16T00:46:38;100343.13;;;3.19;74.87
75045;BME280;63614;56.026;35.960;2022-10-16T00:49:10;100343.91;;;3.20;75.01
75045;BME280;63614;56.026;35.960;2022-10-16T00:51:39;100337.13;;;3.19;74.85
75045;BME280;63614;56.026;35.960;2022-10-16T00:54:13;100339.25;;;3.14;75.21
75045;BME280;63614;56.026;35.960;2022-10-16T00:56:41;100342.03;;;3.11;75.40
75045;BME280;63614;56.026;35.960;2022-10-16T00:59:20;100341.09;;;3.00;75.58
75045;BME280;63614;56.026;35.960;2022-10-16T01:01:48;100343.78;;;2.99;75.49
75045;BME280;63614;56.026;35.960;2022-10-16T01:04:14;100344.81;;;2.96;75.61
75045;BME280;63614;56.026;35.960;2022-10-16T01:09:41;100344.94;;;2.95;75.90
75045;BME280;63614;56.026;35.960;2022-10-16T01:22:57;100360.44;;;2.82;76.33
75045;BME280;63614;56.026;35.960;2022-10-16T01:25:36;100353.06;;;2.77;76.69
75045;BME280;63614;56.026;35.960;2022-10-16T01:28:07;100354.63;;;2.80;76.53
75045;BME280;63614;56.026;35.960;2022-10-16T01:30:36;100359.28;;;2.75;76.73
75045;BME280;63614;56.026;35.960;2022-10-16T01:33:19;100360.91;;;2.76;76.15
75045;BME280;63614;56.026;35.960;2022-10-16T01:35:51;100365.66;;;2.69;76.59
75045;BME280;63614;56.026;35.960;2022-10-16T01:38:23;100368.81;;;2.72;76.80
75045;BME280;63614;56.026;35.960;2022-10-16T01:40:58;100372.00;;;2.76;76.52
75045;BME280;63614;56.026;35.960;2022-10-16T01:43:30;100375.84;;;2.70;76.57
75045;BME280;63614;56.026;35.960;2022-10-16T01:45:59;100369.84;;;2.59;77.09
75045;BME280;63614;56.026;35.960;2022-10-16T01:48:25;100380.09;;;2.47;77.32
75045;BME280;63614;56.026;35.960;2022-10-16T01:51:07;100378.66;;;2.43;77.41
75045;BME280;63614;56.026;35.960;2022-10-16T01:53:36;100371.53;;;2.47;77.38
75045;BME280;63614;56.026;35.960;2022-10-16T01:56:03;100374.69;;;2.50;77.48
75045;BME280;63614;56.026;35.960;2022-10-16T01:58:33;100383.47;;;2.48;77.17
75045;BME280;63614;56.026;35.960;2022-10-16T02:01:02;100378.31;;;2.48;77.59
75045;BME280;63614;56.026;35.960;2022-10-16T02:03:30;100375.28;;;2.43;77.61
75045;BME280;63614;56.026;35.960;2022-10-16T02:05:57;100375.59;;;2.38;77.78
75045;BME280;63614;56.026;35.960;2022-10-16T02:08:25;100379.91;;;2.38;77.62
75045;BME280;63614;56.026;35.960;2022-10-16T02:10:55;100369.75;;;2.36;77.86
75045;BME280;63614;56.026;35.960;2022-10-16T02:16:08;100365.78;;;2.32;77.61
75045;BME280;63614;56.026;35.960;2022-10-16T02:18:34;100375.94;;;2.33;77.80
75045;BME280;63614;56.026;35.960;2022-10-16T02:21:14;100374.28;;;2.32;77.92
75045;BME280;63614;56.026;35.960;2022-10-16T02:23:53;100374.81;;;2.25;78.25
75045;BME280;63614;56.026;35.960;2022-10-16T02:26:30;100370.53;;;2.25;78.15
75045;BME280;63614;56.026;35.960;2022-10-16T02:29:01;100375.78;;;2.24;78.19
75045;BME280;63614;56.026;35.960;2022-10-16T02:31:33;100377.19;;;2.28;77.96
75045;BME280;63614;56.026;35.960;2022-10-16T02:34:02;100381.94;;;2.21;78.31
75045;BME280;63614;56.026;35.960;2022-10-16T02:36:31;100381.94;;;2.21;78.08
75045;BME280;63614;56.026;35.960;2022-10-16T02:38:58;100383.06;;;2.17;78.52
75045;BME280;63614;56.026;35.960;2022-10-16T02:41:26;100385.88;;;2.14;78.58
75045;BME280;63614;56.026;35.960;2022-10-16T02:43:51;100376.41;;;2.14;78.32
75045;BME280;63614;56.026;35.960;2022-10-16T02:46:17;100379.41;;;2.08;78.81
75045;BME280;63614;56.026;35.960;2022-10-16T02:48:44;100386.41;;;2.06;78.69
75045;BME280;63614;56.026;35.960;2022-10-16T02:51:10;100387.75;;;1.99;79.21
75045;BME280;63614;56.026;35.960;2022-10-16T02:53:35;100383.84;;;2.06;78.72
75045;BME280;63614;56.026;35.960;2022-10-16T02:56:01;100384.88;;;2.04;78.84
75045;BME280;63614;56.026;35.960;2022-10-16T02:58:27;100387.38;;;1.92;79.12
75045;BME280;63614;56.026;35.960;2022-10-16T03:00:54;100376.69;;;1.98;79.02
75045;BME280;63614;56.026;35.960;2022-10-16T03:03:20;100380.69;;;1.90;79.21
75045;BME280;63614;56.026;35.960;2022-10-16T03:05:46;100373.84;;;1.90;78.84
75045;BME280;63614;56.026;35.960;2022-10-16T03:08:13;100384.16;;;2.02;78.85
75045;BME280;63614;56.026;35.960;2022-10-16T03:10:38;100378.03;;;1.91;79.00
75045;BME280;63614;56.026;35.960;2022-10-16T03:13:04;100381.84;;;1.86;79.31
75045;BME280;63614;56.026;35.960;2022-10-16T03:15:30;100384.94;;;1.78;79.49
75045;BME280;63614;56.026;35.960;2022-10-16T03:17:59;100388.00;;;1.83;79.37
75045;BME280;63614;56.026;35.960;2022-10-16T03:20:26;100386.50;;;1.80;79.16
75045;BME280;63614;56.026;35.960;2022-10-16T03:22:52;100387.59;;;1.76;79.33
75045;BME280;63614;56.026;35.960;2022-10-16T03:25:18;100392.75;;;1.76;79.45
75045;BME280;63614;56.026;35.960;2022-10-16T03:27:43;100390.78;;;1.80;79.10
75045;BME280;63614;56.026;35.960;2022-10-16T03:30:10;100394.06;;;1.82;78.82
75045;BME280;63614;56.026;35.960;2022-10-16T03:32:36;100400.94;;;1.81;78.91
75045;BME280;63614;56.026;35.960;2022-10-16T03:35:01;100397.75;;;1.78;79.23
75045;BME280;63614;56.026;35.960;2022-10-16T03:37:28;100399.63;;;1.76;79.11
75045;BME280;63614;56.026;35.960;2022-10-16T03:39:53;100402.78;;;1.79;79.02
75045;BME280;63614;56.026;35.960;2022-10-16T03:42:20;100403.31;;;1.72;79.43
75045;BME280;63614;56.026;35.960;2022-10-16T03:44:46;100401.44;;;1.74;79.15
75045;BME280;63614;56.026;35.960;2022-10-16T03:47:11;100406.94;;;1.69;79.14
75045;BME280;63614;56.026;35.960;2022-10-16T03:49:37;100399.84;;;1.73;79.01
75045;BME280;63614;56.026;35.960;2022-10-16T03:52:03;100414.81;;;1.66;79.25
75045;BME280;63614;56.026;35.960;2022-10-16T03:54:29;100409.81;;;1.65;79.40
75045;BME280;63614;56.026;35.960;2022-10-16T03:56:54;100415.94;;;1.62;79.13
75045;BME280;63614;56.026;35.960;2022-10-16T03:59:20;100417.81;;;1.60;79.53
75045;BME280;63614;56.026;35.960;2022-10-16T04:01:46;100412.88;;;1.57;79.70
75045;BME280;63614;56.026;35.960;2022-10-16T04:04:12;100411.13;;;1.57;79.61
75045;BME280;63614;56.026;35.960;2022-10-16T04:06:38;100414.84;;;1.53;79.82
75045;BME280;63614;56.026;35.960;2022-10-16T04:09:04;100420.56;;;1.57;79.83
75045;BME280;63614;56.026;35.960;2022-10-16T04:11:29;100420.56;;;1.57;80.08
75045;BME280;63614;56.026;35.960;2022-10-16T04:13:56;100420.56;;;1.57;79.64
75045;BME280;63614;56.026;35.960;2022-10-16T04:16:22;100416.16;;;1.59;79.63
75045;BME280;63614;56.026;35.960;2022-10-16T04:18:47;100410.84;;;1.49;79.97
75045;BME280;63614;56.026;35.960;2022-10-16T04:21:13;100414.84;;;1.53;79.96
75045;BME280;63614;56.026;35.960;2022-10-16T04:23:39;100413.66;;;1.83;78.55
75045;BME280;63614;56.026;35.960;2022-10-16T04:26:05;100416.47;;;2.04;77.62
75045;BME280;63614;56.026;35.960;2022-10-16T04:28:30;100412.19;;;2.29;76.84
75045;BME280;63614;56.026;35.960;2022-10-16T04:30:57;100419.09;;;2.52;75.90
75045;BME280;63614;56.026;35.960;2022-10-16T04:33:23;100422.41;;;2.66;75.27
75045;BME280;63614;56.026;35.960;2022-10-16T04:35:48;100418.53;;;2.96;74.12
75045;BME280;63614;56.026;35.960;2022-10-16T04:38:21;100421.97;;;3.19;73.15
75045;BME280;63614;56.026;35.960;2022-10-16T04:40:47;100425.25;;;3.21;72.80
75045;BME280;63614;56.026;35.960;2022-10-16T04:43:12;100420.00;;;3.22;73.08
75045;BME280;63614;56.026;35.960;2022-10-16T04:45:38;100412.53;;;3.31;72.45
75045;BME280;63614;56.026;35.960;2022-10-16T04:48:04;100423.97;;;3.38;72.39
75045;BME280;63614;56.026;35.960;2022-10-16T04:50:30;100425.16;;;3.34;72.29
75045;BME280;63614;56.026;35.960;2022-10-16T04:53:06;100430.19;;;3.35;72.21
75045;BME280;63614;56.026;35.960;2022-10-16T04:55:33;100427.50;;;3.37;72.34
75045;BME280;63614;56.026;35.960;2022-10-16T04:57:58;100430.78;;;3.39;72.65
75045;BME280;63614;56.026;35.960;2022-10-16T05:00:24;100431.59;;;3.39;72.49
75045;BME280;63614;56.026;35.960;2022-10-16T05:02:50;100423.63;;;3.31;72.78
75045;BME280;63614;56.026;35.960;2022-10-16T05:05:16;100434.25;;;3.26;73.11
75045;BME280;63614;56.026;35.960;2022-10-16T05:07:45;100436.00;;;3.15;73.47
75045;BME280;63614;56.026;35.960;2022-10-16T05:10:11;100429.91;;;3.27;73.68
75045;BME280;63614;56.026;35.960;2022-10-16T05:12:37;100432.28;;;3.30;73.32
75045;BME280;63614;56.026;35.960;2022-10-16T05:15:03;100434.03;;;3.30;73.11
75045;BME280;63614;56.026;35.960;2022-10-16T05:17:29;100438.47;;;3.27;73.35
75045;BME280;63614;56.026;35.960;2022-10-16T05:19:55;100437.06;;;3.35;73.54
75045;BME280;63614;56.026;35.960;2022-10-16T05:22:21;100435.34;;;3.35;73.26
75045;BME280;63614;56.026;35.960;2022-10-16T05:24:47;100431.59;;;3.51;73.31
75045;BME280;63614;56.026;35.960;2022-10-16T05:27:13;100436.16;;;3.58;72.96
75045;BME280;63614;56.026;35.960;2022-10-16T05:29:45;100427.97;;;3.64;72.98
75045;BME280;63614;56.026;35.960;2022-10-16T05:32:15;100432.09;;;3.78;72.45
75045;BME280;63614;56.026;35.960;2022-10-16T05:34:42;100432.19;;;3.88;72.13
75045;BME280;63614;56.026;35.960;2022-10-16T05:37:08;100438.63;;;3.82;72.64
75045;BME280;63614;56.026;35.960;2022-10-16T05:39:34;100435.13;;;3.84;72.49
75045;BME280;63614;56.026;35.960;2022-10-16T05:41:59;100433.81;;;3.89;72.34
75045;BME280;63614;56.026;35.960;2022-10-16T05:44:25;100436.28;;;3.91;71.96
75045;BME280;63614;56.026;35.960;2022-10-16T05:46:51;100435.22;;;3.93;72.20
75045;BME280;63614;56.026;35.960;2022-10-16T05:49:17;100443.06;;;4.03;72.59
75045;BME280;63614;56.026;35.960;2022-10-16T05:51:42;100440.72;;;4.00;71.99
75045;BME280;63614;56.026;35.960;2022-10-16T05:54:08;100443.50;;;4.08;72.36
75045;BME280;63614;56.026;35.960;2022-10-16T05:56:34;100444.69;;;4.15;72.10
75045;BME280;63614;56.026;35.960;2022-10-16T05:59:00;100454.97;;;4.27;71.66
75045;BME280;63614;56.026;35.960;2022-10-16T06:01:26;100455.28;;;4.33;71.37
75045;BME280;63614;56.026;35.960;2022-10-16T06:03:52;100445.78;;;4.34;71.65
75045;BME280;63614;56.026;35.960;2022-10-16T06:06:21;100454.44;;;4.44;71.48
75045;BME280;63614;56.026;35.960;2022-10-16T06:08:48;100455.09;;;4.58;70.73
75045;BME280;63614;56.026;35.960;2022-10-16T06:11:19;100455.56;;;4.63;71.14
75045;BME280;63614;56.026;35.960;2022-10-16T06:13:52;100456.34;;;4.75;70.93
75045;BME280;63614;56.026;35.960;2022-10-16T06:16:18;100458.22;;;4.72;70.72
75045;BME280;63614;56.026;35.960;2022-10-16T06:18:44;100455.81;;;4.92;70.53
75045;BME280;63614;56.026;35.960;2022-10-16T06:21:12;100458.88;;;4.86;70.44
75045;BME280;63614;56.026;35.960;2022-10-16T06:23:39;100454.22;;;5.01;70.74
75045;BME280;63614;56.026;35.960;2022-10-16T06:26:09;100454.09;;;5.02;70.30
75045;BME280;63614;56.026;35.960;2022-10-16T06:28:35;100460.03;;;5.14;70.56
75045;BME280;63614;56.026;35.960;2022-10-16T06:31:03;100456.88;;;5.32;70.26
75045;BME280;63614;56.026;35.960;2022-10-16T06:33:29;100451.91;;;5.40;70.13
75045;BME280;63614;56.026;35.960;2022-10-16T06:36:07;100457.91;;;5.50;69.93
75045;BME280;63614;56.026;35.960;2022-10-16T06:38:33;100464.63;;;5.62;69.85
75045;BME280;63614;56.026;35.960;2022-10-16T06:41:00;100467.03;;;5.85;68.51
75045;BME280;63614;56.026;35.960;2022-10-16T06:43:27;100464.72;;;5.82;68.32
75045;BME280;63614;56.026;35.960;2022-10-16T06:45:56;100465.69;;;5.81;67.86
75045;BME280;63614;56.026;35.960;2022-10-16T06:48:23;100472.72;;;6.00;67.79
75045;BME280;63614;56.026;35.960;2022-10-16T06:51:09;100468.38;;;6.10;67.17
75045;BME280;63614;56.026;35.960;2022-10-16T06:53:39;100460.91;;;6.17;67.13
75045;BME280;63614;56.026;35.960;2022-10-16T06:56:08;100468.03;;;6.34;67.38
75045;BME280;63614;56.026;35.960;2022-10-16T06:58:35;100465.84;;;6.40;66.95
75045;BME280;63614;56.026;35.960;2022-10-16T07:01:01;100465.19;;;6.57;67.05
75045;BME280;63614;56.026;35.960;2022-10-16T07:03:26;100470.53;;;6.65;65.87
75045;BME280;63614;56.026;35.960;2022-10-16T07:05:52;100469.56;;;6.66;65.51
75045;BME280;63614;56.026;35.960;2022-10-16T07:08:18;100467.13;;;6.84;65.04
75045;BME280;63614;56.026;35.960;2022-10-16T07:10:44;100467.94;;;6.85;65.56
75045;BME280;63614;56.026;35.960;2022-10-16T07:13:10;100462.75;;;7.04;65.06
75045;BME280;63614;56.026;35.960;2022-10-16T07:15:38;100464.81;;;7.01;64.09
75045;BME280;63614;56.026;35.960;2022-10-16T07:18:04;100463.31;;;6.98;63.23
75045;BME280;63614;56.026;35.960;2022-10-16T07:20:30;100465.72;;;7.19;63.50
75045;BME280;63614;56.026;35.960;2022-10-16T07:22:56;100468.28;;;7.29;64.38
75045;BME280;63614;56.026;35.960;2022-10-16T07:25:21;100463.25;;;7.37;63.92
75045;BME280;63614;56.026;35.960;2022-10-16T07:27:47;100464.47;;;7.43;63.66
75045;BME280;63614;56.026;35.960;2022-10-16T07:30:13;100473.03;;;7.53;63.16
75045;BME280;63614;56.026;35.960;2022-10-16T07:32:39;100468.88;;;7.70;62.81
75045;BME280;63614;56.026;35.960;2022-10-16T07:35:05;100462.59;;;7.73;62.73
75045;BME280;63614;56.026;35.960;2022-10-16T07:37:31;100462.69;;;7.81;62.07
75045;BME280;63614;56.026;35.960;2022-10-16T07:39:57;100463.78;;;7.88;61.78
75045;BME280;63614;56.026;35.960;2022-10-16T07:42:23;100454.03;;;8.00;61.31
75045;BME280;63614;56.026;35.960;2022-10-16T07:44:49;100460.56;;;8.04;61.44
75045;BME280;63614;56.026;35.960;2022-10-16T07:47:14;100467.88;;;8.09;62.09
75045;BME280;63614;56.026;35.960;2022-10-16T07:49:41;100458.94;;;8.21;61.44
75045;BME280;63614;56.026;35.960;2022-10-16T07:52:07;100461.91;;;8.26;61.13
75045;BME280;63614;56.026;35.960;2022-10-16T07:54:32;100464.75;;;8.33;60.70
75045;BME280;63614;56.026;35.960;2022-10-16T07:56:58;100468.25;;;8.42;60.64
75045;BME280;63614;56.026;35.960;2022-10-16T07:59:24;100463.19;;;8.40;60.22
75045;BME280;63614;56.026;35.960;2022-10-16T08:01:50;100465.53;;;8.43;60.09
75045;BME280;63614;56.026;35.960;2022-10-16T08:04:16;100453.41;;;8.62;60.37
75045;BME280;63614;56.026;35.960;2022-10-16T08:06:41;100457.66;;;8.71;60.14
75045;BME280;63614;56.026;35.960;2022-10-16T08:09:08;100459.97;;;8.74;59.27
75045;BME280;63614;56.026;35.960;2022-10-16T08:11:34;100456.19;;;8.86;59.05
75045;BME280;63614;56.026;35.960;2022-10-16T08:14:00;100453.34;;;8.98;59.20
75045;BME280;63614;56.026;35.960;2022-10-16T08:16:26;100449.66;;;9.00;58.54
75045;BME280;63614;56.026;35.960;2022-10-16T08:18:52;100451.22;;;9.11;57.83
75045;BME280;63614;56.026;35.960;2022-10-16T08:21:20;100465.44;;;9.07;58.05
75045;BME280;63614;56.026;35.960;2022-10-16T08:23:46;100460.09;;;9.08;57.44
75045;BME280;63614;56.026;35.960;2022-10-16T08:26:12;100450.34;;;9.29;57.76
75045;BME280;63614;56.026;35.960;2022-10-16T08:28:38;100444.78;;;9.50;57.26
75045;BME280;63614;56.026;35.960;2022-10-16T08:31:12;100449.41;;;9.38;56.76
75045;BME280;63614;56.026;35.960;2022-10-16T08:33:42;100452.88;;;9.47;57.11
75045;BME280;63614;56.026;35.960;2022-10-16T08:36:10;100448.19;;;9.50;57.20
75045;BME280;63614;56.026;35.960;2022-10-16T08:38:37;100437.53;;;9.61;57.01
75045;BME280;63614;56.026;35.960;2022-10-16T08:41:23;100445.34;;;9.70;56.22
75045;BME280;63614;56.026;35.960;2022-10-16T08:50:02;100443.81;;;9.85;56.22
75045;BME280;63614;56.026;35.960;2022-10-16T08:52:35;100435.06;;;9.94;56.07
75045;BME280;63614;56.026;35.960;2022-10-16T08:55:05;100427.56;;;9.83;54.63
75045;BME280;63614;56.026;35.960;2022-10-16T08:57:31;100429.00;;;9.86;55.54
75045;BME280;63614;56.026;35.960;2022-10-16T09:00:01;100445.06;;;9.81;54.67
75045;BME280;63614;56.026;35.960;2022-10-16T09:02:37;100433.25;;;9.87;55.51
75045;BME280;63614;56.026;35.960;2022-10-16T09:05:44;100431.84;;;10.00;55.44
75045;BME280;63614;56.026;35.960;2022-10-16T09:16:27;100427.31;;;10.11;55.49
75045;BME280;63614;56.026;35.960;2022-10-16T09:19:17;100431.59;;;10.28;56.24
75045;BME280;63614;56.026;35.960;2022-10-16T09:21:48;100419.44;;;10.37;55.12
75045;BME280;63614;56.026;35.960;2022-10-16T09:24:19;100425.41;;;10.29;55.27
75045;BME280;63614;56.026;35.960;2022-10-16T09:26:46;100413.41;;;10.36;55.09
75045;BME280;63614;56.026;35.960;2022-10-16T09:29:13;100428.34;;;10.26;54.94
75045;BME280;63614;56.026;35.960;2022-10-16T09:31:40;100424.44;;;10.30;55.00
75045;BME280;63614;56.026;35.960;2022-10-16T09:34:32;100415.84;;;10.38;54.97
75045;BME280;63614;56.026;35.960;2022-10-16T09:36:58;100414.75;;;10.49;55.66
75045;BME280;63614;56.026;35.960;2022-10-16T09:39:24;100400.75;;;10.58;54.58
75045;BME280;63614;56.026;35.960;2022-10-16T09:41:51;100409.84;;;10.62;54.21
75045;BME280;63614;56.026;35.960;2022-10-16T09:44:27;100401.56;;;10.50;53.31
75045;BME280;63614;56.026;35.960;2022-10-16T09:47:16;100405.97;;;10.50;54.09
75045;BME280;63614;56.026;35.960;2022-10-16T09:49:59;100394.88;;;10.56;54.00
75045;BME280;63614;56.026;35.960;2022-10-16T09:52:29;100389.03;;;10.62;53.31
75045;BME280;63614;56.026;35.960;2022-10-16T09:55:01;100394.91;;;10.64;53.65
75045;BME280;63614;56.026;35.960;2022-10-16T09:57:28;100399.28;;;10.72;53.66
75045;BME280;63614;56.026;35.960;2022-10-16T09:59:57;100391.97;;;10.76;53.19
75045;BME280;63614;56.026;35.960;2022-10-16T10:02:28;100399.44;;;10.87;53.95
75045;BME280;63614;56.026;35.960;2022-10-16T10:04:55;100392.59;;;10.94;53.08
75045;BME280;63614;56.026;35.960;2022-10-16T10:07:27;100393.41;;;11.03;53.57
75045;BME280;63614;56.026;35.960;2022-10-16T10:09:55;100399.41;;;11.12;52.90
75045;BME280;63614;56.026;35.960;2022-10-16T10:12:24;100394.66;;;11.15;53.14
75045;BME280;63614;56.026;35.960;2022-10-16T10:14:53;100392.25;;;11.14;52.49
75045;BME280;63614;56.026;35.960;2022-10-16T10:17:25;100392.28;;;10.97;52.20
75045;BME280;63614;56.026;35.960;2022-10-16T10:19:55;100394.69;;;11.07;52.39
75045;BME280;63614;56.026;35.960;2022-10-16T10:22:45;100389.81;;;11.04;52.05
75045;BME280;63614;56.026;35.960;2022-10-16T10:38:53;100390.88;;;11.34;51.20
75045;BME280;63614;56.026;35.960;2022-10-16T11:01:04;100389.16;;;11.58;50.36
75045;BME280;63614;56.026;35.960;2022-10-16T11:06:40;100381.84;;;11.53;50.11
75045;BME280;63614;56.026;35.960;2022-10-16T11:09:28;100384.63;;;11.52;50.34
75045;BME280;63614;56.026;35.960;2022-10-16T11:15:28;100364.78;;;11.51;50.79
75045;BME280;63614;56.026;35.960;2022-10-16T11:18:19;100362.84;;;11.44;50.69
75045;BME280;63614;56.026;35.960;2022-10-16T11:21:08;100381.53;;;11.56;51.45
75045;BME280;63614;56.026;35.960;2022-10-16T11:23:59;100381.34;;;11.58;50.90
75045;BME280;63614;56.026;35.960;2022-10-16T11:26:29;100385.41;;;11.60;51.26
75045;BME280;63614;56.026;35.960;2022-10-16T11:28:57;100378.56;;;11.59;50.21
75045;BME280;63614;56.026;35.960;2022-10-16T11:31:27;100368.19;;;11.51;50.88
75045;BME280;63614;56.026;35.960;2022-10-16T11:36:44;100374.00;;;11.61;51.09
75045;BME280;63614;56.026;35.960;2022-10-16T11:39:25;100381.47;;;11.64;51.40
75045;BME280;63614;56.026;35.960;2022-10-16T11:44:40;100369.13;;;11.67;50.42
75045;BME280;63614;56.026;35.960;2022-10-16T11:49:41;100370.22;;;11.72;51.10
75045;BME280;63614;56.026;35.960;2022-10-16T11:52:39;100371.84;;;11.73;50.74
75045;BME280;63614;56.026;35.960;2022-10-16T11:55:58;100370.69;;;11.76;50.61
75045;BME280;63614;56.026;35.960;2022-10-16T11:58:06;100364.66;;;11.75;50.25
75045;BME280;63614;56.026;35.960;2022-10-16T12:00:42;100361.88;;;11.77;50.15
75045;BME280;63614;56.026;35.960;2022-10-16T12:03:21;100376.38;;;11.79;50.52
75045;BME280;63614;56.026;35.960;2022-10-16T12:08:54;100362.56;;;11.71;50.04
75045;BME280;63614;56.026;35.960;2022-10-16T12:13:46;100362.91;;;11.68;51.27
75045;BME280;63614;56.026;35.960;2022-10-16T12:18:40;100360.47;;;11.66;50.73
75045;BME280;63614;56.026;35.960;2022-10-16T12:21:07;100359.16;;;11.70;50.47
75045;BME280;63614;56.026;35.960;2022-10-16T12:23:38;100360.13;;;11.69;50.31
75045;BME280;63614;56.026;35.960;2022-10-16T12:26:05;100349.41;;;11.64;50.08
75045;BME280;63614;56.026;35.960;2022-10-16T12:28:34;100349.56;;;11.62;50.20
75045;BME280;63614;56.026;35.960;2022-10-16T12:31:06;100359.19;;;11.62;50.12
75045;BME280;63614;56.026;35.960;2022-10-16T12:33:40;100359.84;;;11.64;50.30
75045;BME280;63614;56.026;35.960;2022-10-16T12:36:35;100357.56;;;11.61;50.40
75045;BME280;63614;56.026;35.960;2022-10-16T12:39:02;100359.41;;;11.52;50.84
75045;BME280;63614;56.026;35.960;2022-10-16T12:41:34;100355.03;;;11.44;51.36
75045;BME280;63614;56.026;35.960;2022-10-16T12:44:01;100354.75;;;11.39;51.32
75045;BME280;63614;56.026;35.960;2022-10-16T12:51:39;100350.41;;;11.15;51.80
75045;BME280;63614;56.026;35.960;2022-10-16T12:54:18;100353.19;;;11.14;51.94
75045;BME280;63614;56.026;35.960;2022-10-16T13:05:22;100358.41;;;11.05;52.47
75045;BME280;63614;56.026;35.960;2022-10-16T13:07:40;100368.69;;;10.99;52.83
75045;BME280;63614;56.026;35.960;2022-10-16T13:10:26;100357.31;;;10.92;53.33
75045;BME280;63614;56.026;35.960;2022-10-16T13:13:05;100353.25;;;10.89;53.02
75045;BME280;63614;56.026;35.960;2022-10-16T13:24:00;100356.38;;;10.60;54.13
75045;BME280;63614;56.026;35.960;2022-10-16T13:29:01;100350.84;;;10.46;54.50
75045;BME280;63614;56.026;35.960;2022-10-16T13:31:28;100346.94;;;10.34;55.31
75045;BME280;63614;56.026;35.960;2022-10-16T13:33:55;100348.41;;;10.36;54.91
75045;BME280;63614;56.026;35.960;2022-10-16T13:36:30;100348.84;;;10.24;55.09
75045;BME280;63614;56.026;35.960;2022-10-16T13:39:13;100350.50;;;10.25;55.10
75045;BME280;63614;56.026;35.960;2022-10-16T13:41:40;100351.13;;;10.18;55.67
75045;BME280;63614;56.026;35.960;2022-10-16T13:44:14;100349.16;;;10.12;55.50
75045;BME280;63614;56.026;35.960;2022-10-16T13:46:41;100352.25;;;10.08;55.48
75045;BME280;63614;56.026;35.960;2022-10-16T13:49:15;100358.91;;;10.02;56.12
75045;BME280;63614;56.026;35.960;2022-10-16T13:51:41;100355.00;;;9.98;56.06
75045;BME280;63614;56.026;35.960;2022-10-16T13:54:10;100355.78;;;9.98;56.43
75045;BME280;63614;56.026;35.960;2022-10-16T13:56:39;100358.22;;;9.92;56.52
75045;BME280;63614;56.026;35.960;2022-10-16T13:59:22;100347.66;;;9.93;56.67
75045;BME280;63614;56.026;35.960;2022-10-16T14:01:48;100348.97;;;9.89;56.71
75045;BME280;63614;56.026;35.960;2022-10-16T14:04:16;100346.69;;;9.86;56.95
75045;BME280;63614;56.026;35.960;2022-10-16T14:06:44;100347.31;;;9.80;56.90
75045;BME280;63614;56.026;35.960;2022-10-16T14:11:53;100342.44;;;9.69;57.35
75045;BME280;63614;56.026;35.960;2022-10-16T14:14:20;100340.00;;;9.67;57.63
75045;BME280;63614;56.026;35.960;2022-10-16T14:16:47;100339.16;;;9.67;57.60
75045;BME280;63614;56.026;35.960;2022-10-16T14:19:28;100340.47;;;9.62;57.86
75045;BME280;63614;56.026;35.960;2022-10-16T14:21:55;100331.50;;;9.57;57.81
75045;BME280;63614;56.026;35.960;2022-10-16T14:24:27;100328.28;;;9.63;57.98
75045;BME280;63614;56.026;35.960;2022-10-16T14:26:57;100325.19;;;9.59;58.13
75045;BME280;63614;56.026;35.960;2022-10-16T14:29:25;100324.38;;;9.59;58.20
75045;BME280;63614;56.026;35.960;2022-10-16T14:32:02;100322.25;;;9.54;58.35
75045;BME280;63614;56.026;35.960;2022-10-16T14:36:56;100319.34;;;9.57;58.26
75045;BME280;63614;56.026;35.960;2022-10-16T14:39:25;100315.44;;;9.61;58.14
75045;BME280;63614;56.026;35.960;2022-10-16T14:41:51;100319.69;;;9.62;57.98
75045;BME280;63614;56.026;35.960;2022-10-16T14:44:18;100324.19;;;9.60;58.42
75045;BME280;63614;56.026;35.960;2022-10-16T14:46:46;100327.63;;;9.61;58.42
75045;BME280;63614;56.026;35.960;2022-10-16T14:49:16;100325.53;;;9.64;58.41
75045;BME280;63614;56.026;35.960;2022-10-16T14:51:43;100326.16;;;9.67;58.39
75045;BME280;63614;56.026;35.960;2022-10-16T14:54:11;100331.56;;;9.73;58.05
75045;BME280;63614;56.026;35.960;2022-10-16T14:56:50;100327.19;;;9.74;58.13
75045;BME280;63614;56.026;35.960;2022-10-16T14:59:26;100330.25;;;9.69;58.23
75045;BME280;63614;56.026;35.960;2022-10-16T15:01:53;100323.25;;;9.70;58.07